Time;durP1;ratioP1;P1;durP2;ratioP2;P2;SDS_P1;SDS_P2;PMS_P1;PMS_P2;Temp;Humidity;BMP_temperature;BMP_pressure;BME280_temperature;BME280_humidity;BME280_pressure;Samples;Min_cycle;Max_cycle;Signal;HPM_P1;HPM_P2
2023/07/04 00:01:37;;;;;;;;;;;;;;;;;;5053563;28;20415;-91
2023/07/04 00:04:07;;;;;;;;;;;;;;;;;;5053674;28;20065;-89
2023/07/04 00:06:36;;;;;;;;;;;;;;;;;;5036679;28;19939;-90
2023/07/04 00:09:02;;;;;;;;;;;;;;;;;;5036873;28;19927;-90
2023/07/04 00:11:30;;;;;;;;;;;;;;;;;;5036994;28;20011;-89
2023/07/04 00:13:55;;;;;;;;;;;;;;;;;;5037007;28;19924;-89
2023/07/04 00:16:21;;;;;;;;;;;;;;;;;;5036802;28;19986;-90
2023/07/04 00:18:47;;;;;;;;;;;;;;;;;;5036452;28;19975;-88
2023/07/04 00:21:17;;;;;;;;;;;;;;;;;;5036855;28;19927;-88
2023/07/04 00:23:45;;;;;;;;;;;;;;;;;;5053380;28;20310;-87
2023/07/04 00:26:11;;;;;;;;;;;;;;;;;;5053132;28;19924;-87
2023/07/04 00:28:38;;;;;;;;;;;;;;;;;;5053659;28;19997;-88
2023/07/04 00:31:04;;;;;;;;;;;;;;;;;;5053326;28;20301;-88
2023/07/04 00:33:33;;;;;;;;;;;;;;;;;;5053277;28;19987;-87
2023/07/04 00:36:05;;;;;;;;;;;;;;;;;;5036315;28;19920;-87
2023/07/04 00:38:32;;;;;;;;;;;;;;;;;;5052695;28;19983;-87
2023/07/04 00:40:58;;;;;;;;;;;;;;;;;;5036140;28;19927;-88
2023/07/04 00:43:25;;;;;;;;;;;;;;;;;;5036163;28;20454;-87
2023/07/04 00:45:56;;;;;;;;;;;;;;;;;;5052690;28;19975;-88
2023/07/04 00:48:22;;;;;;;;;;;;;;;;;;5052752;28;19988;-87
2023/07/04 00:50:49;;;;;;;;;;;;;;;;;;5052645;28;19924;-87
2023/07/04 00:53:15;;;;;;;;;;;;;;;;;;5036008;28;19928;-88
2023/07/04 00:55:41;;;;;;;;;;;;;;;;;;5052521;28;20337;-86
2023/07/04 00:58:07;;;;;;;;;;;;;;;;;;5052709;28;20099;-87
2023/07/04 01:00:33;;;;;;;;;;;;;;;;;;5052528;28;20380;-87
2023/07/04 01:02:59;;;;;;;;;;;;;;;;;;5035717;28;19939;-87
2023/07/04 01:05:25;;;;;;;;;;;;;;;;;;5035619;28;19931;-87
2023/07/04 01:07:51;;;;;;;;;;;;;;;;;;5052218;28;19940;-87
2023/07/04 01:10:17;;;;;;;;;;;;;;;;;;5052357;28;19958;-87
2023/07/04 01:12:43;;;;;;;;;;;;;;;;;;5052642;28;20103;-87
2023/07/04 01:15:09;;;;;;;;;;;;;;;;;;5052630;28;20003;-87
2023/07/04 01:17:35;;;;;;;;;;;;;;;;;;5052145;28;20465;-87
2023/07/04 01:20:01;;;;;;;;;;;;;;;;;;5035927;28;19920;-87
2023/07/04 01:22:27;;;;;;;;;;;;;;;;;;5052419;28;20381;-87
2023/07/04 01:24:53;;;;;;;;;;;;;;;;;;5052097;28;19971;-87
2023/07/04 01:27:19;;;;;;;;;;;;;;;;;;5052124;28;20376;-87
2023/07/04 01:29:45;;;;;;;;;;;;;;;;;;5052094;28;20410;-87
2023/07/04 01:32:11;;;;;;;;;;;;;;;;;;5052125;28;19936;-87
2023/07/04 01:34:37;;;;;;;;;;;;;;;;;;5051946;28;19925;-87
2023/07/04 01:37:03;;;;;;;;;;;;;;;;;;5051900;28;20069;-88
2023/07/04 01:39:29;;;;;;;;;;;;;;;;;;5052179;28;20391;-87
2023/07/04 01:41:55;;;;;;;;;;;;;;;;;;5052270;28;20361;-88
2023/07/04 01:44:24;;;;;;;;;;;;;;;;;;5051622;28;20377;-88
2023/07/04 01:46:50;;;;;;;;;;;;;;;;;;5051478;28;19927;-88
2023/07/04 01:49:17;;;;;;;;;;;;;;;;;;5051036;28;20350;-87
2023/07/04 01:51:46;;;;;;;;;;;;;;;;;;5051780;28;20357;-87
2023/07/04 01:54:17;;;;;;;;;;;;;;;;;;5051923;28;19966;-88
2023/07/04 01:56:43;;;;;;;;;;;;;;;;;;5034530;28;19925;-88
2023/07/04 01:59:09;;;;;;;;;;;;;;;;;;5051631;28;19921;-88
2023/07/04 02:01:35;;;;;;;;;;;;;;;;;;5051244;28;19974;-88
2023/07/04 02:04:01;;;;;;;;;;;;;;;;;;5051141;28;20084;-87
2023/07/04 02:06:27;;;;;;;;;;;;;;;;;;5034551;28;20111;-87
2023/07/04 02:08:53;;;;;;;;;;;;;;;;;;5034823;28;19920;-87
2023/07/04 02:11:19;;;;;;;;;;;;;;;;;;5051217;28;19932;-87
2023/07/04 02:13:45;;;;;;;;;;;;;;;;;;5051296;28;19989;-87
2023/07/04 02:16:11;;;;;;;;;;;;;;;;;;5051468;28;19973;-87
2023/07/04 02:18:37;;;;;;;;;;;;;;;;;;5051286;28;20360;-87
2023/07/04 02:21:03;;;;;;;;;;;;;;;;;;5051473;28;20485;-87
2023/07/04 02:23:28;;;;;;;;;;;;;;;;;;5050829;28;19925;-87
2023/07/04 02:25:54;;;;;;;;;;;;;;;;;;5050889;28;19963;-87
2023/07/04 02:28:20;;;;;;;;;;;;;;;;;;5050999;28;19920;-87
2023/07/04 02:30:46;;;;;;;;;;;;;;;;;;5050923;28;20315;-87
2023/07/04 02:33:12;;;;;;;;;;;;;;;;;;5050833;28;19941;-87
2023/07/04 02:35:38;;;;;;;;;;;;;;;;;;5034170;28;19921;-87
2023/07/04 02:38:04;;;;;;;;;;;;;;;;;;5050635;28;20336;-87
2023/07/04 02:40:30;;;;;;;;;;;;;;;;;;5034123;28;19921;-87
2023/07/04 02:42:58;;;;;;;;;;;;;;;;;;5050570;28;19921;-86
2023/07/04 02:45:24;;;;;;;;;;;;;;;;;;5050717;28;20058;-86
2023/07/04 02:47:50;;;;;;;;;;;;;;;;;;5033787;28;20360;-86
2023/07/04 02:50:16;;;;;;;;;;;;;;;;;;5050710;28;20003;-87
2023/07/04 02:52:42;;;;;;;;;;;;;;;;;;5050677;28;19921;-87
2023/07/04 02:55:08;;;;;;;;;;;;;;;;;;5050471;28;19925;-87
2023/07/04 02:57:34;;;;;;;;;;;;;;;;;;5050426;28;20277;-87
2023/07/04 02:59:59;;;;;;;;;;;;;;;;;;5050527;28;19932;-87
2023/07/04 03:02:25;;;;;;;;;;;;;;;;;;5053221;28;19968;-88
2023/07/04 03:04:51;;;;;;;;;;;;;;;;;;5054683;28;19928;-86
2023/07/04 03:07:18;;;;;;;;;;;;;;;;;;5054644;28;19964;-87
2023/07/04 03:09:44;;;;;;;;;;;;;;;;;;5037949;28;19948;-88
2023/07/04 03:12:10;;;;;;;;;;;;;;;;;;5037800;28;20023;-87
2023/07/04 03:14:35;;;;;;;;;;;;;;;;;;5054426;28;19952;-87
2023/07/04 03:17:01;;;;;;;;;;;;;;;;;;5054189;28;20368;-87
2023/07/04 03:19:27;;;;;;;;;;;;;;;;;;5054575;28;19920;-87
2023/07/04 03:21:53;;;;;;;;;;;;;;;;;;5054445;28;19920;-88
2023/07/04 03:24:20;;;;;;;;;;;;;;;;;;5037662;28;19931;-87
2023/07/04 03:26:46;;;;;;;;;;;;;;;;;;5037730;28;20328;-87
2023/07/04 03:29:12;;;;;;;;;;;;;;;;;;5054093;28;19964;-88
2023/07/04 03:31:38;;;;;;;;;;;;;;;;;;5054017;28;19940;-88
2023/07/04 03:34:04;;;;;;;;;;;;;;;;;;5037210;28;19925;-87
2023/07/04 03:36:30;;;;;;;;;;;;;;;;;;5053941;28;19920;-88
2023/07/04 03:38:56;;;;;;;;;;;;;;;;;;5053860;28;19921;-87
2023/07/04 03:41:22;;;;;;;;;;;;;;;;;;5054184;28;20411;-87
2023/07/04 03:43:48;;;;;;;;;;;;;;;;;;5037243;28;19947;-87
2023/07/04 03:46:14;;;;;;;;;;;;;;;;;;5053604;28;19925;-87
2023/07/04 03:48:42;;;;;;;;;;;;;;;;;;5037142;28;19928;-87
2023/07/04 03:51:08;;;;;;;;;;;;;;;;;;5036954;28;20073;-88
2023/07/04 03:53:37;;;;;;;;;;;;;;;;;;5037020;28;19998;-88
2023/07/04 03:56:03;;;;;;;;;;;;;;;;;;5035955;28;19925;-88
2023/07/04 03:58:29;;;;;;;;;;;;;;;;;;5052338;28;19927;-88
2023/07/04 04:00:54;;;;;;;;;;;;;;;;;;5035755;28;19921;-88
2023/07/04 04:03:21;;;;;;;;;;;;;;;;;;5052405;28;20378;-88
2023/07/04 04:05:47;;;;;;;;;;;;;;;;;;5035990;28;19921;-88
2023/07/04 04:08:12;;;;;;;;;;;;;;;;;;5035711;28;19938;-88
2023/07/04 04:10:38;;;;;;;;;;;;;;;;;;5052567;28;19921;-88
2023/07/04 04:13:04;;;;;;;;;;;;;;;;;;5052107;28;19924;-88
2023/07/04 04:15:30;;;;;;;;;;;;;;;;;;5052237;28;20003;-87
2023/07/04 04:17:56;;;;;;;;;;;;;;;;;;5035467;28;19921;-87
2023/07/04 04:20:22;;;;;;;;;;;;;;;;;;5035934;28;19932;-87
2023/07/04 04:22:49;;;;;;;;;;;;;;;;;;5052436;28;19984;-87
2023/07/04 04:25:14;;;;;;;;;;;;;;;;;;5052163;28;19968;-87
2023/07/04 04:27:40;;;;;;;;;;;;;;;;;;5051916;28;19921;-87
2023/07/04 04:30:08;;;;;;;;;;;;;;;;;;5052139;28;19928;-87
2023/07/04 04:32:34;;;;;;;;;;;;;;;;;;5051898;28;19924;-87
2023/07/04 04:35:00;;;;;;;;;;;;;;;;;;5051882;28;19944;-87
2023/07/04 04:37:26;;;;;;;;;;;;;;;;;;5051880;28;19921;-87
2023/07/04 04:39:52;;;;;;;;;;;;;;;;;;5051882;28;19960;-87
2023/07/04 04:42:23;;;;;;;;;;;;;;;;;;5051783;28;19921;-87
2023/07/04 04:44:49;;;;;;;;;;;;;;;;;;5035156;28;20011;-87
2023/07/04 04:47:15;;;;;;;;;;;;;;;;;;5035397;28;20264;-87
2023/07/04 04:49:41;;;;;;;;;;;;;;;;;;5051699;28;20008;-87
2023/07/04 04:52:07;;;;;;;;;;;;;;;;;;5051598;28;20008;-87
2023/07/04 04:54:33;;;;;;;;;;;;;;;;;;4983383;28;1959902;-89
2023/07/04 04:56:59;;;;;;;;;;;;;;;;;;5052469;28;19928;-88
2023/07/04 04:59:25;;;;;;;;;;;;;;;;;;5052575;28;19925;-88
2023/07/04 05:01:51;;;;;;;;;;;;;;;;;;5052739;28;19925;-89
2023/07/04 05:04:17;;;;;;;;;;;;;;;;;;5052203;28;19925;-88
2023/07/04 05:06:43;;;;;;;;;;;;;;;;;;5053402;28;20436;-89
2023/07/04 05:09:09;;;;;;;;;;;;;;;;;;5051723;28;20202;-89
2023/07/04 05:11:37;;;;;;;;;;;;;;;;;;5053642;28;19920;-89
2023/07/04 05:14:04;;;;;;;;;;;;;;;;;;5053649;28;19975;-89
2023/07/04 05:16:29;;;;;;;;;;;;;;;;;;5052462;28;19979;-90
2023/07/04 05:18:55;;;;;;;;;;;;;;;;;;5035618;28;20020;-88
2023/07/04 05:21:21;;;;;;;;;;;;;;;;;;5053488;28;19927;-89
2023/07/04 05:23:48;;;;;;;;;;;;;;;;;;5051189;28;19932;-89
2023/07/04 05:26:14;;;;;;;;;;;;;;;;;;5051794;28;19925;-89
2023/07/04 05:28:39;;;;;;;;;;;;;;;;;;5035162;28;19921;-88
2023/07/04 05:31:07;;;;;;;;;;;;;;;;;;5034861;28;19928;-88
2023/07/04 05:33:33;;;;;;;;;;;;;;;;;;5051012;28;19927;-88
2023/07/04 05:35:59;;;;;;;;;;;;;;;;;;5051330;28;19921;-88
2023/07/04 05:38:25;;;;;;;;;;;;;;;;;;5051835;28;19924;-89
2023/07/04 05:40:50;;;;;;;;;;;;;;;;;;5051794;28;19924;-88
2023/07/04 05:43:16;;;;;;;;;;;;;;;;;;5051941;28;19931;-89
2023/07/04 05:45:42;;;;;;;;;;;;;;;;;;5051557;28;20387;-88
2023/07/04 05:48:08;;;;;;;;;;;;;;;;;;5051644;28;19920;-88
2023/07/04 05:50:34;;;;;;;;;;;;;;;;;;5034735;28;19925;-89
2023/07/04 05:53:00;;;;;;;;;;;;;;;;;;5034608;28;20271;-89
2023/07/04 05:55:26;;;;;;;;;;;;;;;;;;5051202;28;19925;-89
2023/07/04 05:57:52;;;;;;;;;;;;;;;;;;5051604;28;19925;-89
2023/07/04 06:00:19;;;;;;;;;;;;;;;;;;5034703;28;19921;-89
2023/07/04 06:02:45;;;;;;;;;;;;;;;;;;5034954;28;20279;-89
2023/07/04 06:05:11;;;;;;;;;;;;;;;;;;5034841;28;19932;-89
2023/07/04 06:07:37;;;;;;;;;;;;;;;;;;5051347;28;19928;-89
2023/07/04 06:10:02;;;;;;;;;;;;;;;;;;5052476;28;19925;-89
2023/07/04 06:12:28;;;;;;;;;;;;;;;;;;5034896;28;19983;-89
2023/07/04 06:14:54;;;;;;;;;;;;;;;;;;5051351;28;19925;-89
2023/07/04 06:17:20;;;;;;;;;;;;;;;;;;5052477;28;19921;-89
2023/07/04 06:19:46;;;;;;;;;;;;;;;;;;5051027;28;19928;-89
2023/07/04 06:22:12;;;;;;;;;;;;;;;;;;5034810;28;20016;-89
2023/07/04 06:24:38;;;;;;;;;;;;;;;;;;5051063;28;19925;-89
2023/07/04 06:27:05;;;;;;;;;;;;;;;;;;5034356;28;20519;-89
2023/07/04 06:29:30;;;;;;;;;;;;;;;;;;5034338;28;19932;-88
2023/07/04 06:31:56;;;;;;;;;;;;;;;;;;5051033;28;19921;-89
2023/07/04 06:34:22;;;;;;;;;;;;;;;;;;5034467;28;19921;-89
2023/07/04 06:36:48;;;;;;;;;;;;;;;;;;5034293;28;19921;-89
2023/07/04 06:39:14;;;;;;;;;;;;;;;;;;5050716;28;19925;-89
2023/07/04 06:41:40;;;;;;;;;;;;;;;;;;5034407;28;19921;-89
2023/07/04 06:44:06;;;;;;;;;;;;;;;;;;5050701;28;20287;-89
2023/07/04 06:46:32;;;;;;;;;;;;;;;;;;5050638;28;19921;-89
2023/07/04 06:48:58;;;;;;;;;;;;;;;;;;5034278;28;19921;-89
2023/07/04 06:51:29;;;;;;;;;;;;;;;;;;5051916;28;20269;-89
2023/07/04 06:53:55;;;;;;;;;;;;;;;;;;5051027;28;20303;-89
2023/07/04 06:56:21;;;;;;;;;;;;;;;;;;5033883;28;20145;-89
2023/07/04 06:58:47;;;;;;;;;;;;;;;;;;5050988;28;19921;-89
2023/07/04 07:01:13;;;;;;;;;;;;;;;;;;5033952;28;20376;-89
2023/07/04 07:03:39;;;;;;;;;;;;;;;;;;5050519;28;19936;-89
2023/07/04 07:06:05;;;;;;;;;;;;;;;;;;5051610;28;19924;-89
2023/07/04 07:08:31;;;;;;;;;;;;;;;;;;5052207;28;20018;-89
2023/07/04 07:10:57;;;;;;;;;;;;;;;;;;5034254;28;20296;-89
2023/07/04 07:13:23;;;;;;;;;;;;;;;;;;5051708;28;19921;-89
2023/07/04 07:15:49;;;;;;;;;;;;;;;;;;5050393;28;20003;-89
2023/07/04 07:18:15;;;;;;;;;;;;;;;;;;5051780;28;20020;-89
2023/07/04 07:20:41;;;;;;;;;;;;;;;;;;5051609;28;19920;-89
2023/07/04 07:23:07;;;;;;;;;;;;;;;;;;5050608;28;19987;-89
2023/07/04 07:25:32;;;;;;;;;;;;;;;;;;5051918;28;20372;-88
2023/07/04 07:27:58;;;;;;;;;;;;;;;;;;5033739;28;19921;-89
2023/07/04 07:30:24;;;;;;;;;;;;;;;;;;5050310;28;19955;-89
2023/07/04 07:32:50;;;;;;;;;;;;;;;;;;5050281;28;19987;-89
2023/07/04 07:35:16;;;;;;;;;;;;;;;;;;5051645;28;20349;-89
2023/07/04 07:37:42;;;;;;;;;;;;;;;;;;5050097;28;19924;-89
2023/07/04 07:40:08;;;;;;;;;;;;;;;;;;5050254;28;19921;-89
2023/07/04 07:42:34;;;;;;;;;;;;;;;;;;5033457;28;19978;-89
2023/07/04 07:45:00;;;;;;;;;;;;;;;;;;5050259;28;19924;-88
2023/07/04 07:47:26;;;;;;;;;;;;;;;;;;5034796;28;19921;-88
2023/07/04 07:49:52;;;;;;;;;;;;;;;;;;5054152;28;20382;-88
2023/07/04 07:52:17;;;;;;;;;;;;;;;;;;5054047;28;19921;-89
2023/07/04 07:54:43;;;;;;;;;;;;;;;;;;5053812;28;19924;-88
2023/07/04 07:57:09;;;;;;;;;;;;;;;;;;5053699;28;19921;-89
2023/07/04 07:59:35;;;;;;;;;;;;;;;;;;5053657;28;19921;-89
2023/07/04 08:02:03;;;;;;;;;;;;;;;;;;5037150;28;19921;-89
2023/07/04 08:04:29;;;;;;;;;;;;;;;;;;5053513;28;19936;-88
2023/07/04 08:06:54;;;;;;;;;;;;;;;;;;5055108;28;19925;-89
2023/07/04 08:09:20;;;;;;;;;;;;;;;;;;5055066;28;20300;-88
2023/07/04 08:11:46;;;;;;;;;;;;;;;;;;5053614;28;19921;-88
2023/07/04 08:14:12;;;;;;;;;;;;;;;;;;5054899;28;19921;-88
2023/07/04 08:16:38;;;;;;;;;;;;;;;;;;5053228;28;19967;-88
2023/07/04 08:19:04;;;;;;;;;;;;;;;;;;5053654;28;20024;-89
2023/07/04 08:21:30;;;;;;;;;;;;;;;;;;5055036;28;20016;-89
2023/07/04 08:23:56;;;;;;;;;;;;;;;;;;5053447;28;19924;-89
2023/07/04 08:26:22;;;;;;;;;;;;;;;;;;5053113;28;19927;-89
2023/07/04 08:28:48;;;;;;;;;;;;;;;;;;5036550;28;20019;-88
2023/07/04 08:31:17;;;;;;;;;;;;;;;;;;5053465;28;19971;-89
2023/07/04 08:33:43;;;;;;;;;;;;;;;;;;5053187;28;19936;-89
2023/07/04 08:36:09;;;;;;;;;;;;;;;;;;5053472;28;20218;-89
2023/07/04 08:38:35;;;;;;;;;;;;;;;;;;5036534;28;19921;-89
2023/07/04 08:41:01;;;;;;;;;;;;;;;;;;5054378;28;19927;-89
2023/07/04 08:43:27;;;;;;;;;;;;;;;;;;5054372;28;19928;-89
2023/07/04 08:45:53;;;;;;;;;;;;;;;;;;5036330;28;19921;-89
2023/07/04 08:48:19;;;;;;;;;;;;;;;;;;5036067;28;20034;-89
2023/07/04 08:50:45;;;;;;;;;;;;;;;;;;5053248;28;20352;-89
2023/07/04 08:53:11;;;;;;;;;;;;;;;;;;5053195;28;20364;-89
2023/07/04 08:55:36;;;;;;;;;;;;;;;;;;5036172;28;19974;-89
2023/07/04 08:58:03;;;;;;;;;;;;;;;;;;5052559;28;19974;-89
2023/07/04 09:00:29;;;;;;;;;;;;;;;;;;5035109;28;20319;-89
2023/07/04 09:02:55;;;;;;;;;;;;;;;;;;5036361;28;19925;-89
2023/07/04 09:05:21;;;;;;;;;;;;;;;;;;5052640;28;19921;-89
2023/07/04 09:07:47;;;;;;;;;;;;;;;;;;5052312;28;19921;-89
2023/07/04 09:10:13;;;;;;;;;;;;;;;;;;5052451;28;19920;-89
2023/07/04 09:12:39;;;;;;;;;;;;;;;;;;5052476;28;19921;-89
2023/07/04 09:15:04;;;;;;;;;;;;;;;;;;5052272;28;19925;-89
2023/07/04 09:17:30;;;;;;;;;;;;;;;;;;5053580;28;20277;-89
2023/07/04 09:19:56;;;;;;;;;;;;;;;;;;5053736;28;20345;-89
2023/07/04 09:22:22;;;;;;;;;;;;;;;;;;5053573;28;20018;-89
2023/07/04 09:24:48;;;;;;;;;;;;;;;;;;5052019;28;19925;-89
2023/07/04 09:27:14;;;;;;;;;;;;;;;;;;5035588;28;19928;-89
2023/07/04 09:29:40;;;;;;;;;;;;;;;;;;5052190;28;20317;-90
2023/07/04 09:32:06;;;;;;;;;;;;;;;;;;5035585;28;19921;-90
2023/07/04 09:34:32;;;;;;;;;;;;;;;;;;5051839;28;19921;-90
2023/07/04 09:36:58;;;;;;;;;;;;;;;;;;5035867;28;20283;-89
2023/07/04 09:39:24;;;;;;;;;;;;;;;;;;5052942;28;20292;-90
2023/07/04 09:41:50;;;;;;;;;;;;;;;;;;5052350;28;20012;-90
2023/07/04 09:44:16;;;;;;;;;;;;;;;;;;5051950;28;20015;-90
2023/07/04 09:46:41;;;;;;;;;;;;;;;;;;5052283;28;20265;-90
2023/07/04 09:49:07;;;;;;;;;;;;;;;;;;5052477;28;20015;-90
2023/07/04 09:51:33;;;;;;;;;;;;;;;;;;5035139;28;19946;-90
2023/07/04 09:53:59;;;;;;;;;;;;;;;;;;5035361;28;19990;-89
2023/07/04 09:56:26;;;;;;;;;;;;;;;;;;5052056;28;19929;-90
2023/07/04 09:58:51;;;;;;;;;;;;;;;;;;5053376;28;19927;-89
2023/07/04 10:01:17;;;;;;;;;;;;;;;;;;5052005;28;19921;-90
2023/07/04 10:03:45;;;;;;;;;;;;;;;;;;5052125;28;19935;-89
2023/07/04 10:06:11;;;;;;;;;;;;;;;;;;5053446;28;19927;-90
2023/07/04 10:08:36;;;;;;;;;;;;;;;;;;5052267;28;20431;-90
2023/07/04 10:11:03;;;;;;;;;;;;;;;;;;5052605;28;20011;-90
2023/07/04 10:13:29;;;;;;;;;;;;;;;;;;5051728;28;19971;-90
2023/07/04 10:15:56;;;;;;;;;;;;;;;;;;5052936;28;19964;-89
2023/07/04 10:18:22;;;;;;;;;;;;;;;;;;5034756;28;19921;-90
2023/07/04 10:20:48;;;;;;;;;;;;;;;;;;5051267;28;19927;-89
2023/07/04 10:23:14;;;;;;;;;;;;;;;;;;5052449;28;20482;-90
2023/07/04 10:25:40;;;;;;;;;;;;;;;;;;5051291;28;20028;-90
2023/07/04 10:28:06;;;;;;;;;;;;;;;;;;5034141;28;20015;-89
2023/07/04 10:30:32;;;;;;;;;;;;;;;;;;5051349;28;19968;-90
2023/07/04 10:32:58;;;;;;;;;;;;;;;;;;5050946;28;20356;-90
2023/07/04 10:35:24;;;;;;;;;;;;;;;;;;5051066;28;20015;-89
2023/07/04 10:37:50;;;;;;;;;;;;;;;;;;5050761;28;20021;-89
2023/07/04 10:40:16;;;;;;;;;;;;;;;;;;5050987;28;19920;-90
2023/07/04 10:42:42;;;;;;;;;;;;;;;;;;5052215;28;19928;-89
2023/07/04 10:45:08;;;;;;;;;;;;;;;;;;5050710;28;20293;-90
2023/07/04 10:47:34;;;;;;;;;;;;;;;;;;5050969;28;20321;-90
2023/07/04 10:50:00;;;;;;;;;;;;;;;;;;5050799;28;19972;-89
2023/07/04 10:52:26;;;;;;;;;;;;;;;;;;5034287;28;20011;-90
2023/07/04 10:54:52;;;;;;;;;;;;;;;;;;5034170;28;20250;-89
2023/07/04 10:57:18;;;;;;;;;;;;;;;;;;5050463;28;19927;-90
2023/07/04 10:59:44;;;;;;;;;;;;;;;;;;5034215;28;19963;-90
2023/07/04 11:02:10;;;;;;;;;;;;;;;;;;5052077;28;19928;-89
2023/07/04 11:04:37;;;;;;;;;;;;;;;;;;5051966;28;19924;-90
2023/07/04 11:07:03;;;;;;;;;;;;;;;;;;5050335;28;19921;-90
2023/07/04 11:09:29;;;;;;;;;;;;;;;;;;5050555;28;20382;-90
2023/07/04 11:11:55;;;;;;;;;;;;;;;;;;5050279;28;20007;-90
2023/07/04 11:14:21;;;;;;;;;;;;;;;;;;5033931;28;19924;-90
2023/07/04 11:16:47;;;;;;;;;;;;;;;;;;5050293;28;19990;-89
2023/07/04 11:19:13;;;;;;;;;;;;;;;;;;5033972;28;19921;-90
2023/07/04 11:21:39;;;;;;;;;;;;;;;;;;5051646;28;19925;-90
2023/07/04 11:24:04;;;;;;;;;;;;;;;;;;5037301;28;20299;-89
2023/07/04 11:26:32;;;;;;;;;;;;;;;;;;5054136;28;19921;-90
2023/07/04 11:28:59;;;;;;;;;;;;;;;;;;5037561;28;20331;-90
2023/07/04 11:31:25;;;;;;;;;;;;;;;;;;5054214;28;19925;-90
2023/07/04 11:33:51;;;;;;;;;;;;;;;;;;5054356;28;20023;-90
2023/07/04 11:36:17;;;;;;;;;;;;;;;;;;5054326;28;20330;-89
2023/07/04 11:38:44;;;;;;;;;;;;;;;;;;5054160;28;20291;-90
2023/07/04 11:41:10;;;;;;;;;;;;;;;;;;5053932;28;19925;-90
2023/07/04 11:43:36;;;;;;;;;;;;;;;;;;5054281;28;19931;-90
2023/07/04 11:46:03;;;;;;;;;;;;;;;;;;5037172;28;19955;-90
2023/07/04 11:48:29;;;;;;;;;;;;;;;;;;5053925;28;19920;-90
2023/07/04 11:50:56;;;;;;;;;;;;;;;;;;5054215;28;19978;-89
2023/07/04 11:53:22;;;;;;;;;;;;;;;;;;5053811;28;20368;-90
2023/07/04 11:55:48;;;;;;;;;;;;;;;;;;5053618;28;19931;-90
2023/07/04 11:58:14;;;;;;;;;;;;;;;;;;5037382;28;19920;-90
2023/07/04 12:00:43;;;;;;;;;;;;;;;;;;5053921;28;19921;-90
2023/07/04 12:03:11;;;;;;;;;;;;;;;;;;5055097;28;19943;-90
2023/07/04 12:05:36;;;;;;;;;;;;;;;;;;5037353;28;20224;-90
2023/07/04 12:08:02;;;;;;;;;;;;;;;;;;5054794;28;19921;-90
2023/07/04 12:10:28;;;;;;;;;;;;;;;;;;5055214;28;19933;-89
2023/07/04 12:12:54;;;;;;;;;;;;;;;;;;5055060;28;19974;-89
2023/07/04 12:15:20;;;;;;;;;;;;;;;;;;5053539;28;20149;-89
2023/07/04 12:17:48;;;;;;;;;;;;;;;;;;5053224;28;20007;-90
2023/07/04 12:20:14;;;;;;;;;;;;;;;;;;5036585;28;19920;-90
2023/07/04 12:22:39;;;;;;;;;;;;;;;;;;5036609;28;19921;-90
2023/07/04 12:25:06;;;;;;;;;;;;;;;;;;5053385;28;19931;-89
2023/07/04 12:27:32;;;;;;;;;;;;;;;;;;5053453;28;20327;-90
2023/07/04 12:29:57;;;;;;;;;;;;;;;;;;5036695;28;19925;-90
2023/07/04 12:32:24;;;;;;;;;;;;;;;;;;5037241;28;19927;-89
2023/07/04 12:34:51;;;;;;;;;;;;;;;;;;5054748;28;20430;-89
2023/07/04 12:37:19;;;;;;;;;;;;;;;;;;5057141;28;19982;-90
2023/07/04 12:39:45;;;;;;;;;;;;;;;;;;5039074;28;19925;-89
2023/07/04 12:42:11;;;;;;;;;;;;;;;;;;5055386;28;19921;-90
2023/07/04 12:44:37;;;;;;;;;;;;;;;;;;5055930;28;19925;-89
2023/07/04 12:47:03;;;;;;;;;;;;;;;;;;5056325;28;19921;-89
2023/07/04 12:49:29;;;;;;;;;;;;;;;;;;5056122;28;19928;-89
2023/07/04 12:51:55;;;;;;;;;;;;;;;;;;5037838;28;19925;-89
2023/07/04 12:54:21;;;;;;;;;;;;;;;;;;5036834;28;19921;-92
2023/07/04 12:56:47;;;;;;;;;;;;;;;;;;5036135;28;19927;-89
2023/07/04 12:59:13;;;;;;;;;;;;;;;;;;5053301;28;19921;-93
2023/07/04 13:01:39;;;;;;;;;;;;;;;;;;5035995;28;19970;-90
2023/07/04 13:04:05;;;;;;;;;;;;;;;;;;5053931;28;20296;-90
2023/07/04 13:06:31;;;;;;;;;;;;;;;;;;5052357;28;19921;-89
2023/07/04 13:08:57;;;;;;;;;;;;;;;;;;5035718;28;19921;-91
2023/07/04 13:11:23;;;;;;;;;;;;;;;;;;5035364;28;20050;-90
2023/07/04 13:13:49;;;;;;;;;;;;;;;;;;5035863;28;19964;-92
2023/07/04 13:16:15;;;;;;;;;;;;;;;;;;5052449;28;20403;-92
2023/07/04 13:18:41;;;;;;;;;;;;;;;;;;5052413;28;19932;-91
2023/07/04 13:21:07;;;;;;;;;;;;;;;;;;5035932;28;19982;-93
2023/07/04 13:23:33;;;;;;;;;;;;;;;;;;5035634;28;19928;-91
2023/07/04 13:25:59;;;;;;;;;;;;;;;;;;5053441;28;19921;-91
2023/07/04 13:28:28;;;;;;;;;;;;;;;;;;5035190;28;19986;-91
2023/07/04 13:30:54;;;;;;;;;;;;;;;;;;5035276;28;20003;-91
2023/07/04 13:33:20;;;;;;;;;;;;;;;;;;5052116;28;19971;-90
2023/07/04 13:35:49;;;;;;;;;;;;;;;;;;5051319;28;19921;-91
2023/07/04 13:38:15;;;;;;;;;;;;;;;;;;5051774;28;19947;-91
2023/07/04 13:40:41;;;;;;;;;;;;;;;;;;5031166;28;19921;-92
2023/07/04 13:43:07;;;;;;;;;;;;;;;;;;5035444;28;19920;-92
2023/07/04 13:45:32;;;;;;;;;;;;;;;;;;5053723;28;20285;-92
2023/07/04 13:48:00;;;;;;;;;;;;;;;;;;5053226;28;20275;-92
2023/07/04 13:50:26;;;;;;;;;;;;;;;;;;5052231;28;19935;-91
2023/07/04 13:52:51;;;;;;;;;;;;;;;;;;5053267;28;20438;-91
2023/07/04 13:55:17;;;;;;;;;;;;;;;;;;5051624;28;19925;-91
2023/07/04 13:57:43;;;;;;;;;;;;;;;;;;5051554;28;19925;-92
2023/07/04 14:00:09;;;;;;;;;;;;;;;;;;5051553;28;20034;-91
2023/07/04 14:02:35;;;;;;;;;;;;;;;;;;5034635;28;19925;-91
2023/07/04 14:05:01;;;;;;;;;;;;;;;;;;5034436;28;19989;-90
2023/07/04 14:07:27;;;;;;;;;;;;;;;;;;5052794;28;20383;-93
2023/07/04 14:09:53;;;;;;;;;;;;;;;;;;5035142;28;20088;-91
2023/07/04 14:12:19;;;;;;;;;;;;;;;;;;5034979;28;20284;-90
2023/07/04 14:14:45;;;;;;;;;;;;;;;;;;5052598;28;19925;-88
2023/07/04 14:17:11;;;;;;;;;;;;;;;;;;5051174;28;19921;-90
2023/07/04 14:19:37;;;;;;;;;;;;;;;;;;5051188;28;20069;-89
2023/07/04 14:22:03;;;;;;;;;;;;;;;;;;5034352;28;20013;-88
2023/07/04 14:24:29;;;;;;;;;;;;;;;;;;5052277;28;19983;-88
2023/07/04 14:26:54;;;;;;;;;;;;;;;;;;5050989;28;19968;-91
2023/07/04 14:29:20;;;;;;;;;;;;;;;;;;5051051;28;20284;-88
2023/07/04 14:31:46;;;;;;;;;;;;;;;;;;5051970;28;20175;-88
2023/07/04 14:34:12;;;;;;;;;;;;;;;;;;5050610;28;19932;-88
2023/07/04 14:36:38;;;;;;;;;;;;;;;;;;5051920;28;19920;-88
2023/07/04 14:39:04;;;;;;;;;;;;;;;;;;5051379;28;19920;-87
2023/07/04 14:41:30;;;;;;;;;;;;;;;;;;5050934;28;19927;-88
2023/07/04 14:43:56;;;;;;;;;;;;;;;;;;5052237;28;19925;-88
2023/07/04 14:46:22;;;;;;;;;;;;;;;;;;5050393;28;19921;-88
2023/07/04 14:48:48;;;;;;;;;;;;;;;;;;5050721;28;19921;-87
2023/07/04 14:51:13;;;;;;;;;;;;;;;;;;5033931;28;19921;-87
2023/07/04 14:53:39;;;;;;;;;;;;;;;;;;5050601;28;20007;-88
2023/07/04 14:56:05;;;;;;;;;;;;;;;;;;5050724;28;20021;-88
2023/07/04 14:58:31;;;;;;;;;;;;;;;;;;5056139;28;20115;-87
2023/07/04 15:00:57;;;;;;;;;;;;;;;;;;5055892;28;19982;-89
2023/07/04 15:03:23;;;;;;;;;;;;;;;;;;5054839;28;19968;-87
2023/07/04 15:05:49;;;;;;;;;;;;;;;;;;5055922;28;19986;-87
2023/07/04 15:08:15;;;;;;;;;;;;;;;;;;5054552;28;19970;-89
2023/07/04 15:10:41;;;;;;;;;;;;;;;;;;5054485;28;19943;-88
2023/07/04 15:13:07;;;;;;;;;;;;;;;;;;5055701;28;20361;-88
2023/07/04 15:15:32;;;;;;;;;;;;;;;;;;5055797;28;19921;-88
2023/07/04 15:17:58;;;;;;;;;;;;;;;;;;5054433;28;19932;-88
2023/07/04 15:20:24;;;;;;;;;;;;;;;;;;5055637;28;19925;-89
2023/07/04 15:22:50;;;;;;;;;;;;;;;;;;5054552;28;19921;-88
2023/07/04 15:25:16;;;;;;;;;;;;;;;;;;5054306;28;19925;-88
2023/07/04 15:27:42;;;;;;;;;;;;;;;;;;5055582;28;19921;-88
2023/07/04 15:30:08;;;;;;;;;;;;;;;;;;5054004;28;19924;-90
2023/07/04 15:32:34;;;;;;;;;;;;;;;;;;5055203;28;19921;-87
2023/07/04 15:35:00;;;;;;;;;;;;;;;;;;5055617;28;19920;-89
2023/07/04 15:37:26;;;;;;;;;;;;;;;;;;5053950;28;19928;-88
2023/07/04 15:39:52;;;;;;;;;;;;;;;;;;5053945;28;19924;-89
2023/07/04 15:42:18;;;;;;;;;;;;;;;;;;5054036;28;19975;-89
2023/07/04 15:44:44;;;;;;;;;;;;;;;;;;5053741;28;19996;-88
2023/07/04 15:47:10;;;;;;;;;;;;;;;;;;5053676;28;20311;-88
2023/07/04 15:49:36;;;;;;;;;;;;;;;;;;5053733;28;19921;-89
2023/07/04 15:52:02;;;;;;;;;;;;;;;;;;5036919;28;20008;-90
2023/07/04 15:54:28;;;;;;;;;;;;;;;;;;5036826;28;19921;-90
2023/07/04 15:56:54;;;;;;;;;;;;;;;;;;5054170;28;19982;-92
2023/07/04 15:59:20;;;;;;;;;;;;;;;;;;5053854;28;19973;-87
2023/07/04 16:01:45;;;;;;;;;;;;;;;;;;5053954;28;19982;-88
2023/07/04 16:04:11;;;;;;;;;;;;;;;;;;5053752;28;19936;-88
2023/07/04 16:06:37;;;;;;;;;;;;;;;;;;5053501;28;19928;-88
2023/07/04 16:09:03;;;;;;;;;;;;;;;;;;5054333;28;20242;-88
2023/07/04 16:11:29;;;;;;;;;;;;;;;;;;5053624;28;19971;-89
2023/07/04 16:13:55;;;;;;;;;;;;;;;;;;5054684;28;20394;-88
2023/07/04 16:16:22;;;;;;;;;;;;;;;;;;5053305;28;19922;-88
2023/07/04 16:18:47;;;;;;;;;;;;;;;;;;5053581;28;19921;-88
2023/07/04 16:21:13;;;;;;;;;;;;;;;;;;5036725;28;19966;-88
2023/07/04 16:23:40;;;;;;;;;;;;;;;;;;5054314;28;19928;-89
2023/07/04 16:26:06;;;;;;;;;;;;;;;;;;5037025;28;19920;-89
2023/07/04 16:28:32;;;;;;;;;;;;;;;;;;5053350;28;19920;-88
2023/07/04 16:30:58;;;;;;;;;;;;;;;;;;5053373;28;19921;-88
2023/07/04 16:33:25;;;;;;;;;;;;;;;;;;5053429;28;19939;-88
2023/07/04 16:35:51;;;;;;;;;;;;;;;;;;5053373;28;19920;-88
2023/07/04 16:38:17;;;;;;;;;;;;;;;;;;5054418;28;20006;-88